Loganville, Wisconsin
Current Conditions -  °F | °C
As of 9:35 PM on Saturday 24 Jan 2015 (Local Time) from KC35 Reporting Station
Overcast Overcast  
Wind Chill: 27°   Ceiling: 2600
Heat Index: 32°   Visibility: 7mi
Dew Point: 30°   Wind: 5mph
Humidity: 94%   Direction: 80°E
Pressure: 29.65"   Gusts: NA
Location:  43.44°N, 90.04°W
Report Text: KC35 250335Z AUTO 08004KT 7SM OVC026 00/M01 A2965 RMK AO2 T10021010
Loading
Personal Weather Stations






























Interactive Weather Map New forecast layout! Learn more

10-Day Weather Forecast

Advertisements
Track Severe Weather on mobile